sensor_id;sensor_type;location;lat;lon;timestamp;pressure;altitude;pressure_sealevel;temperature
73734;BMP280;62039;50.000;9.064;2024-02-26T00:01:47;98533.09;;;6.55
73734;BMP280;62039;50.000;9.064;2024-02-26T00:04:14;98531.31;;;6.55
73734;BMP280;62039;50.000;9.064;2024-02-26T00:06:42;98536.50;;;6.55
73734;BMP280;62039;50.000;9.064;2024-02-26T00:09:09;98523.72;;;6.54
73734;BMP280;62039;50.000;9.064;2024-02-26T00:11:37;98526.13;;;6.55
73734;BMP280;62039;50.000;9.064;2024-02-26T00:14:04;98528.91;;;6.54
73734;BMP280;62039;50.000;9.064;2024-02-26T00:16:31;98528.09;;;6.53
73734;BMP280;62039;50.000;9.064;2024-02-26T00:19:01;98528.28;;;6.52
73734;BMP280;62039;50.000;9.064;2024-02-26T00:21:28;98521.31;;;6.52
73734;BMP280;62039;50.000;9.064;2024-02-26T00:23:55;98525.69;;;6.52
73734;BMP280;62039;50.000;9.064;2024-02-26T00:26:22;98515.31;;;6.52
73734;BMP280;62039;50.000;9.064;2024-02-26T00:28:49;98523.91;;;6.52
73734;BMP280;62039;50.000;9.064;2024-02-26T00:31:16;98523.09;;;6.52
73734;BMP280;62039;50.000;9.064;2024-02-26T00:33:42;98530.06;;;6.51
73734;BMP280;62039;50.000;9.064;2024-02-26T00:36:12;98533.47;;;6.52
73734;BMP280;62039;50.000;9.064;2024-02-26T00:38:39;98521.66;;;6.49
73734;BMP280;62039;50.000;9.064;2024-02-26T00:41:06;98520.66;;;6.50
73734;BMP280;62039;50.000;9.064;2024-02-26T00:43:33;98531.03;;;6.50
73734;BMP280;62039;50.000;9.064;2024-02-26T00:46:00;98521.66;;;6.49
73734;BMP280;62039;50.000;9.064;2024-02-26T00:48:27;98523.44;;;6.49
73734;BMP280;62039;50.000;9.064;2024-02-26T00:50:54;98520.22;;;6.47
73734;BMP280;62039;50.000;9.064;2024-02-26T00:53:24;98519.44;;;6.46
73734;BMP280;62039;50.000;9.064;2024-02-26T00:55:51;98520.41;;;6.45
73734;BMP280;62039;50.000;9.064;2024-02-26T00:58:18;98520.41;;;6.45
73734;BMP280;62039;50.000;9.064;2024-02-26T01:00:45;98516.81;;;6.46
73734;BMP280;62039;50.000;9.064;2024-02-26T01:03:12;98504.03;;;6.45
73734;BMP280;62039;50.000;9.064;2024-02-26T01:05:39;98508.41;;;6.44
73734;BMP280;62039;50.000;9.064;2024-02-26T01:08:06;98496.41;;;6.43
73734;BMP280;62039;50.000;9.064;2024-02-26T01:10:35;98471.47;;;6.42
73734;BMP280;62039;50.000;9.064;2024-02-26T01:13:02;98480.22;;;6.41
73734;BMP280;62039;50.000;9.064;2024-02-26T01:15:29;98470.06;;;6.40
73734;BMP280;62039;50.000;9.064;2024-02-26T01:17:57;98467.63;;;6.38
73734;BMP280;62039;50.000;9.064;2024-02-26T01:20:24;98469.41;;;6.38
73734;BMP280;62039;50.000;9.064;2024-02-26T01:22:51;98486.72;;;6.37
73734;BMP280;62039;50.000;9.064;2024-02-26T01:25:18;98483.19;;;6.38
73734;BMP280;62039;50.000;9.064;2024-02-26T01:27:48;98491.59;;;6.40
73734;BMP280;62039;50.000;9.064;2024-02-26T01:30:15;98479.63;;;6.39
73734;BMP280;62039;50.000;9.064;2024-02-26T01:32:42;98484.81;;;6.39
73734;BMP280;62039;50.000;9.064;2024-02-26T01:35:09;98487.41;;;6.39
73734;BMP280;62039;50.000;9.064;2024-02-26T01:37:36;98498.56;;;6.40
73734;BMP280;62039;50.000;9.064;2024-02-26T01:40:04;98489.81;;;6.41
73734;BMP280;62039;50.000;9.064;2024-02-26T01:42:31;98483.81;;;6.40
73734;BMP280;62039;50.000;9.064;2024-02-26T01:45:01;98500.97;;;6.41
73734;BMP280;62039;50.000;9.064;2024-02-26T01:47:29;98505.53;;;6.39
73734;BMP280;62039;50.000;9.064;2024-02-26T01:49:56;98505.72;;;6.38
73734;BMP280;62039;50.000;9.064;2024-02-26T01:52:24;98519.81;;;6.35
73734;BMP280;62039;50.000;9.064;2024-02-26T01:54:51;98509.78;;;6.32
73734;BMP280;62039;50.000;9.064;2024-02-26T01:57:18;98501.38;;;6.30
73734;BMP280;62039;50.000;9.064;2024-02-26T01:59:45;98503.34;;;6.28
73734;BMP280;62039;50.000;9.064;2024-02-26T02:02:15;98493.97;;;6.27
73734;BMP280;62039;50.000;9.064;2024-02-26T02:04:42;98473.22;;;6.27
73734;BMP280;62039;50.000;9.064;2024-02-26T02:07:09;98463.84;;;6.26
73734;BMP280;62039;50.000;9.064;2024-02-26T02:09:36;98456.22;;;6.24
73734;BMP280;62039;50.000;9.064;2024-02-26T02:12:04;98470.63;;;6.27
73734;BMP280;62039;50.000;9.064;2024-02-26T02:14:32;98484.22;;;6.29
73734;BMP280;62039;50.000;9.064;2024-02-26T02:16:59;98478.69;;;6.32
73734;BMP280;62039;50.000;9.064;2024-02-26T02:19:29;98474.91;;;6.35
73734;BMP280;62039;50.000;9.064;2024-02-26T02:21:58;98460.16;;;6.35
73734;BMP280;62039;50.000;9.064;2024-02-26T02:24:25;98479.31;;;6.34
73734;BMP280;62039;50.000;9.064;2024-02-26T02:26:52;98519.81;;;6.35
73734;BMP280;62039;50.000;9.064;2024-02-26T02:29:19;98492.88;;;6.36
73734;BMP280;62039;50.000;9.064;2024-02-26T02:31:46;98512.53;;;6.39
73734;BMP280;62039;50.000;9.064;2024-02-26T02:34:13;98502.97;;;6.39
73734;BMP280;62039;50.000;9.064;2024-02-26T02:36:52;98510.56;;;6.41
73734;BMP280;62039;50.000;9.064;2024-02-26T02:39:21;98493.19;;;6.41
73734;BMP280;62039;50.000;9.064;2024-02-26T02:41:49;98512.34;;;6.40
73734;BMP280;62039;50.000;9.064;2024-02-26T02:44:15;98506.16;;;6.41
73734;BMP280;62039;50.000;9.064;2024-02-26T02:46:43;98488.00;;;6.41
73734;BMP280;62039;50.000;9.064;2024-02-26T02:49:10;98472.44;;;6.41
73734;BMP280;62039;50.000;9.064;2024-02-26T02:51:37;98496.78;;;6.40
73734;BMP280;62039;50.000;9.064;2024-02-26T02:54:04;98531.31;;;6.41
73734;BMP280;62039;50.000;9.064;2024-02-26T02:56:34;98511.34;;;6.41
73734;BMP280;62039;50.000;9.064;2024-02-26T02:59:01;98532.72;;;6.43
73734;BMP280;62039;50.000;9.064;2024-02-26T03:01:28;98533.19;;;6.47
73734;BMP280;62039;50.000;9.064;2024-02-26T03:03:55;98532.03;;;6.49
73734;BMP280;62039;50.000;9.064;2024-02-26T03:06:22;98535.25;;;6.51
73734;BMP280;62039;50.000;9.064;2024-02-26T03:08:49;98536.69;;;6.54
73734;BMP280;62039;50.000;9.064;2024-02-26T03:11:16;98532.94;;;6.56
73734;BMP280;62039;50.000;9.064;2024-02-26T03:13:45;98531.13;;;6.57
73734;BMP280;62039;50.000;9.064;2024-02-26T03:16:13;98532.94;;;6.56
73734;BMP280;62039;50.000;9.064;2024-02-26T03:18:40;98534.53;;;6.57
73734;BMP280;62039;50.000;9.064;2024-02-26T03:21:07;98545.91;;;6.56
73734;BMP280;62039;50.000;9.064;2024-02-26T03:23:34;98542.97;;;6.59
73734;BMP280;62039;50.000;9.064;2024-02-26T03:26:01;98522.81;;;6.61
73734;BMP280;62039;50.000;9.064;2024-02-26T03:28:28;98533.03;;;6.63
73734;BMP280;62039;50.000;9.064;2024-02-26T03:30:58;98534.63;;;6.64
73734;BMP280;62039;50.000;9.064;2024-02-26T03:33:25;98537.06;;;6.65
73734;BMP280;62039;50.000;9.064;2024-02-26T03:35:52;98528.31;;;6.66
73734;BMP280;62039;50.000;9.064;2024-02-26T03:38:19;98534.09;;;6.68
73734;BMP280;62039;50.000;9.064;2024-02-26T03:40:46;98529.91;;;6.68
73734;BMP280;62039;50.000;9.064;2024-02-26T03:43:13;98539.28;;;6.68
73734;BMP280;62039;50.000;9.064;2024-02-26T03:45:40;98546.09;;;6.70
73734;BMP280;62039;50.000;9.064;2024-02-26T03:48:10;98545.13;;;6.71
73734;BMP280;62039;50.000;9.064;2024-02-26T03:50:37;98550.31;;;6.71
73734;BMP280;62039;50.000;9.064;2024-02-26T03:53:04;98546.72;;;6.72
73734;BMP280;62039;50.000;9.064;2024-02-26T03:55:31;98548.69;;;6.70
73734;BMP280;62039;50.000;9.064;2024-02-26T03:57:58;98544.47;;;6.68
73734;BMP280;62039;50.000;9.064;2024-02-26T04:00:25;98549.88;;;6.67
73734;BMP280;62039;50.000;9.064;2024-02-26T04:02:52;98542.25;;;6.65
73734;BMP280;62039;50.000;9.064;2024-02-26T04:05:21;98549.88;;;6.67
73734;BMP280;62039;50.000;9.064;2024-02-26T04:07:48;98549.88;;;6.67
73734;BMP280;62039;50.000;9.064;2024-02-26T04:10:15;98542.25;;;6.65
73734;BMP280;62039;50.000;9.064;2024-02-26T04:12:42;98552.63;;;6.65
73734;BMP280;62039;50.000;9.064;2024-02-26T04:15:10;98558.47;;;6.68
73734;BMP280;62039;50.000;9.064;2024-02-26T04:17:38;98565.22;;;6.68
73734;BMP280;62039;50.000;9.064;2024-02-26T04:20:06;98562.63;;;6.68
73734;BMP280;62039;50.000;9.064;2024-02-26T04:22:36;98560.03;;;6.68
73734;BMP280;62039;50.000;9.064;2024-02-26T04:25:03;98557.44;;;6.68
73734;BMP280;62039;50.000;9.064;2024-02-26T04:27:30;98547.06;;;6.68
73734;BMP280;62039;50.000;9.064;2024-02-26T04:29:57;98552.25;;;6.68
73734;BMP280;62039;50.000;9.064;2024-02-26T04:32:24;98556.66;;;6.68
73734;BMP280;62039;50.000;9.064;2024-02-26T04:34:51;98555.06;;;6.67
73734;BMP280;62039;50.000;9.064;2024-02-26T04:37:19;98554.25;;;6.66
73734;BMP280;62039;50.000;9.064;2024-02-26T04:39:48;98551.00;;;6.64
73734;BMP280;62039;50.000;9.064;2024-02-26T04:42:17;98549.41;;;6.63
73734;BMP280;62039;50.000;9.064;2024-02-26T04:44:44;98546.97;;;6.62
73734;BMP280;62039;50.000;9.064;2024-02-26T04:47:11;98549.78;;;6.60
73734;BMP280;62039;50.000;9.064;2024-02-26T04:49:37;98547.34;;;6.59
73734;BMP280;62039;50.000;9.064;2024-02-26T04:52:05;98557.09;;;6.57
73734;BMP280;62039;50.000;9.064;2024-02-26T04:54:32;98572.00;;;6.55
73734;BMP280;62039;50.000;9.064;2024-02-26T04:57:02;98572.19;;;6.53
73734;BMP280;62039;50.000;9.064;2024-02-26T04:59:29;98578.38;;;6.52
73734;BMP280;62039;50.000;9.064;2024-02-26T05:01:56;98579.34;;;6.51
73734;BMP280;62039;50.000;9.064;2024-02-26T05:04:23;98571.91;;;6.48
73734;BMP280;62039;50.000;9.064;2024-02-26T05:06:49;98572.91;;;6.47
73734;BMP280;62039;50.000;9.064;2024-02-26T05:09:16;98572.28;;;6.45
73734;BMP280;62039;50.000;9.064;2024-02-26T05:11:43;98566.44;;;6.43
73734;BMP280;62039;50.000;9.064;2024-02-26T05:14:13;98560.63;;;6.41
73734;BMP280;62039;50.000;9.064;2024-02-26T05:16:40;98564.22;;;6.40
73734;BMP280;62039;50.000;9.064;2024-02-26T05:19:07;98560.97;;;6.38
73734;BMP280;62039;50.000;9.064;2024-02-26T05:21:34;98565.38;;;6.38
73734;BMP280;62039;50.000;9.064;2024-02-26T05:24:01;98566.47;;;6.35
73734;BMP280;62039;50.000;9.064;2024-02-26T05:26:28;98559.69;;;6.34
73734;BMP280;62039;50.000;9.064;2024-02-26T05:28:55;98558.09;;;6.33
73734;BMP280;62039;50.000;9.064;2024-02-26T05:31:25;98569.25;;;6.34
73734;BMP280;62039;50.000;9.064;2024-02-26T05:33:52;98571.84;;;6.34
73734;BMP280;62039;50.000;9.064;2024-02-26T05:36:20;98570.84;;;6.35
73734;BMP280;62039;50.000;9.064;2024-02-26T05:38:47;98582.22;;;6.34
73734;BMP280;62039;50.000;9.064;2024-02-26T05:41:15;98581.88;;;6.37
73734;BMP280;62039;50.000;9.064;2024-02-26T05:43:42;98576.53;;;6.38
73734;BMP280;62039;50.000;9.064;2024-02-26T05:46:09;98581.72;;;6.38
73734;BMP280;62039;50.000;9.064;2024-02-26T05:48:38;98569.41;;;6.40
73734;BMP280;62039;50.000;9.064;2024-02-26T05:51:05;98579.78;;;6.40
73734;BMP280;62039;50.000;9.064;2024-02-26T05:53:32;98580.59;;;6.41
73734;BMP280;62039;50.000;9.064;2024-02-26T05:55:59;98579.78;;;6.40
73734;BMP280;62039;50.000;9.064;2024-02-26T05:58:26;98578.78;;;6.41
73734;BMP280;62039;50.000;9.064;2024-02-26T06:00:53;98593.72;;;6.39
73734;BMP280;62039;50.000;9.064;2024-02-26T06:03:20;98591.13;;;6.39
73734;BMP280;62039;50.000;9.064;2024-02-26T06:05:50;98594.53;;;6.40
73734;BMP280;62039;50.000;9.064;2024-02-26T06:08:17;98598.91;;;6.39
73734;BMP280;62039;50.000;9.064;2024-02-26T06:10:44;98598.09;;;6.39
73734;BMP280;62039;50.000;9.064;2024-02-26T06:13:11;98600.81;;;6.37
73734;BMP280;62039;50.000;9.064;2024-02-26T06:15:37;98614.75;;;6.36
73734;BMP280;62039;50.000;9.064;2024-02-26T06:18:05;98603.16;;;6.32
73734;BMP280;62039;50.000;9.064;2024-02-26T06:20:32;98610.28;;;6.30
73734;BMP280;62039;50.000;9.064;2024-02-26T06:23:01;98603.66;;;6.27
73734;BMP280;62039;50.000;9.064;2024-02-26T06:25:28;98607.41;;;6.25
73734;BMP280;62039;50.000;9.064;2024-02-26T06:27:55;98601.59;;;6.23
73734;BMP280;62039;50.000;9.064;2024-02-26T06:30:22;98618.09;;;6.22
73734;BMP280;62039;50.000;9.064;2024-02-26T06:32:49;98613.13;;;6.20
73734;BMP280;62039;50.000;9.064;2024-02-26T06:35:16;98615.06;;;6.18
73734;BMP280;62039;50.000;9.064;2024-02-26T06:37:43;98619.63;;;6.16
73734;BMP280;62039;50.000;9.064;2024-02-26T06:40:13;98627.75;;;6.13
73734;BMP280;62039;50.000;9.064;2024-02-26T06:42:40;98620.13;;;6.12
73734;BMP280;62039;50.000;9.064;2024-02-26T06:45:07;98629.84;;;6.10
73734;BMP280;62039;50.000;9.064;2024-02-26T06:47:34;98635.41;;;6.07
73734;BMP280;62039;50.000;9.064;2024-02-26T06:50:02;98635.56;;;6.05
73734;BMP280;62039;50.000;9.064;2024-02-26T06:52:29;98634.13;;;6.03
73734;BMP280;62039;50.000;9.064;2024-02-26T06:54:55;98634.47;;;6.00
73734;BMP280;62039;50.000;9.064;2024-02-26T06:57:25;98643.22;;;5.99
73734;BMP280;62039;50.000;9.064;2024-02-26T06:59:52;98639.19;;;5.96
73734;BMP280;62039;50.000;9.064;2024-02-26T07:02:19;98642.94;;;5.94
73734;BMP280;62039;50.000;9.064;2024-02-26T07:04:46;98649.41;;;5.89
73734;BMP280;62039;50.000;9.064;2024-02-26T07:07:13;98656.38;;;5.89
73734;BMP280;62039;50.000;9.064;2024-02-26T07:09:42;98653.94;;;5.87
73734;BMP280;62039;50.000;9.064;2024-02-26T07:12:09;98656.75;;;5.86
73734;BMP280;62039;50.000;9.064;2024-02-26T07:14:38;98658.53;;;5.85
73734;BMP280;62039;50.000;9.064;2024-02-26T07:17:05;98662.06;;;5.84
73734;BMP280;62039;50.000;9.064;2024-02-26T07:19:32;98666.44;;;5.84
73734;BMP280;62039;50.000;9.064;2024-02-26T07:21:59;98670.81;;;5.83
73734;BMP280;62039;50.000;9.064;2024-02-26T07:24:26;98674.38;;;5.82
73734;BMP280;62039;50.000;9.064;2024-02-26T07:26:53;98677.78;;;5.83
73734;BMP280;62039;50.000;9.064;2024-02-26T07:29:20;98682.16;;;5.82
73734;BMP280;62039;50.000;9.064;2024-02-26T07:31:50;98684.75;;;5.82
73734;BMP280;62039;50.000;9.064;2024-02-26T07:34:17;98689.94;;;5.82
73734;BMP280;62039;50.000;9.064;2024-02-26T07:36:44;98689.63;;;5.85
73734;BMP280;62039;50.000;9.064;2024-02-26T07:39:11;98686.38;;;5.83
73734;BMP280;62039;50.000;9.064;2024-02-26T07:41:38;98691.56;;;5.83
73734;BMP280;62039;50.000;9.064;2024-02-26T07:44:05;98692.53;;;5.82
73734;BMP280;62039;50.000;9.064;2024-02-26T07:46:32;98684.91;;;5.81
73734;BMP280;62039;50.000;9.064;2024-02-26T07:49:01;98686.72;;;5.80
73734;BMP280;62039;50.000;9.064;2024-02-26T07:51:28;98694.66;;;5.79
73734;BMP280;62039;50.000;9.064;2024-02-26T07:53:55;98697.41;;;5.77
73734;BMP280;62039;50.000;9.064;2024-02-26T07:56:22;98698.38;;;5.76
73734;BMP280;62039;50.000;9.064;2024-02-26T07:58:49;98700.97;;;5.76
73734;BMP280;62039;50.000;9.064;2024-02-26T08:01:16;98703.72;;;5.75
73734;BMP280;62039;50.000;9.064;2024-02-26T08:03:43;98706.50;;;5.73
73734;BMP280;62039;50.000;9.064;2024-02-26T08:06:12;98705.84;;;5.71
73734;BMP280;62039;50.000;9.064;2024-02-26T08:08:39;98711.19;;;5.70
73734;BMP280;62039;50.000;9.064;2024-02-26T08:11:06;98706.19;;;5.68
73734;BMP280;62039;50.000;9.064;2024-02-26T08:13:33;98708.78;;;5.68
73734;BMP280;62039;50.000;9.064;2024-02-26T08:16:00;98700.03;;;5.69
73734;BMP280;62039;50.000;9.064;2024-02-26T08:18:27;98701.66;;;5.70
73734;BMP280;62039;50.000;9.064;2024-02-26T08:20:54;98705.84;;;5.71
73734;BMP280;62039;50.000;9.064;2024-02-26T08:23:24;98700.84;;;5.70
73734;BMP280;62039;50.000;9.064;2024-02-26T08:25:51;98705.22;;;5.69
73734;BMP280;62039;50.000;9.064;2024-02-26T08:28:18;98703.44;;;5.70
73734;BMP280;62039;50.000;9.064;2024-02-26T08:30:45;98712.66;;;5.72
73734;BMP280;62039;50.000;9.064;2024-02-26T08:33:12;98710.69;;;5.74
73734;BMP280;62039;50.000;9.064;2024-02-26T08:35:39;98711.34;;;5.76
73734;BMP280;62039;50.000;9.064;2024-02-26T08:38:06;98705.84;;;5.79
73734;BMP280;62039;50.000;9.064;2024-02-26T08:40:36;98712.28;;;5.83
73734;BMP280;62039;50.000;9.064;2024-02-26T08:43:03;98706.78;;;5.86
73734;BMP280;62039;50.000;9.064;2024-02-26T08:45:30;98711.59;;;5.89
73734;BMP280;62039;50.000;9.064;2024-02-26T08:47:57;98714.69;;;5.93
73734;BMP280;62039;50.000;9.064;2024-02-26T08:50:24;98716.13;;;5.96
73734;BMP280;62039;50.000;9.064;2024-02-26T08:52:51;98715.78;;;5.99
73734;BMP280;62039;50.000;9.064;2024-02-26T08:55:18;98727.44;;;6.03
73734;BMP280;62039;50.000;9.064;2024-02-26T08:57:48;98729.84;;;6.04
73734;BMP280;62039;50.000;9.064;2024-02-26T09:00:16;98733.25;;;6.05
73734;BMP280;62039;50.000;9.064;2024-02-26T09:02:43;98740.69;;;6.08
73734;BMP280;62039;50.000;9.064;2024-02-26T09:05:11;98743.28;;;6.08
73734;BMP280;62039;50.000;9.064;2024-02-26T09:07:38;98742.13;;;6.10
73734;BMP280;62039;50.000;9.064;2024-02-26T09:10:06;98741.97;;;6.12
73734;BMP280;62039;50.000;9.064;2024-02-26T09:12:33;98734.84;;;6.14
73734;BMP280;62039;50.000;9.064;2024-02-26T09:15:03;98724.47;;;6.14
73734;BMP280;62039;50.000;9.064;2024-02-26T09:17:30;98729.47;;;6.15
73734;BMP280;62039;50.000;9.064;2024-02-26T09:19:57;98729.31;;;6.17
73734;BMP280;62039;50.000;9.064;2024-02-26T09:22:24;98733.50;;;6.18
73734;BMP280;62039;50.000;9.064;2024-02-26T09:24:51;98737.72;;;6.19
73734;BMP280;62039;50.000;9.064;2024-02-26T09:27:18;98737.38;;;6.22
73734;BMP280;62039;50.000;9.064;2024-02-26T09:29:45;98733.81;;;6.23
73734;BMP280;62039;50.000;9.064;2024-02-26T09:32:14;98737.03;;;6.25
73734;BMP280;62039;50.000;9.064;2024-02-26T09:34:41;98734.63;;;6.23
73734;BMP280;62039;50.000;9.064;2024-02-26T09:37:08;98739.00;;;6.23
73734;BMP280;62039;50.000;9.064;2024-02-26T09:39:47;98759.72;;;6.23
73734;BMP280;62039;50.000;9.064;2024-02-26T09:42:14;98760.38;;;6.25
73734;BMP280;62039;50.000;9.064;2024-02-26T09:44:43;98754.06;;;6.27
73734;BMP280;62039;50.000;9.064;2024-02-26T09:47:14;98755.50;;;6.30
73734;BMP280;62039;50.000;9.064;2024-02-26T09:49:42;98759.53;;;6.33
73734;BMP280;62039;50.000;9.064;2024-02-26T09:52:10;98748.19;;;6.34
73734;BMP280;62039;50.000;9.064;2024-02-26T09:54:37;98755.63;;;6.37
73734;BMP280;62039;50.000;9.064;2024-02-26T09:57:05;98757.09;;;6.39
73734;BMP280;62039;50.000;9.064;2024-02-26T09:59:39;98764.53;;;6.42
73734;BMP280;62039;50.000;9.064;2024-02-26T10:02:09;98769.53;;;6.44
73734;BMP280;62039;50.000;9.064;2024-02-26T10:04:41;98768.56;;;6.45
73734;BMP280;62039;50.000;9.064;2024-02-26T10:07:13;98771.81;;;6.47
73734;BMP280;62039;50.000;9.064;2024-02-26T10:09:40;98771.63;;;6.48
73734;BMP280;62039;50.000;9.064;2024-02-26T10:12:10;98779.06;;;6.51
73734;BMP280;62039;50.000;9.064;2024-02-26T10:14:37;98777.75;;;6.55
73734;BMP280;62039;50.000;9.064;2024-02-26T10:17:07;98787.63;;;6.60
73734;BMP280;62039;50.000;9.064;2024-02-26T10:19:34;98786.47;;;6.62
73734;BMP280;62039;50.000;9.064;2024-02-26T10:22:07;98781.59;;;6.68
73734;BMP280;62039;50.000;9.064;2024-02-26T10:24:34;98779.59;;;6.70
73734;BMP280;62039;50.000;9.064;2024-02-26T10:27:02;98787.06;;;6.73
73734;BMP280;62039;50.000;9.064;2024-02-26T10:29:30;98775.34;;;6.77
73734;BMP280;62039;50.000;9.064;2024-02-26T10:31:57;98783.59;;;6.80
73734;BMP280;62039;50.000;9.064;2024-02-26T10:34:24;98774.50;;;6.84
73734;BMP280;62039;50.000;9.064;2024-02-26T10:36:52;98784.34;;;6.89
73734;BMP280;62039;50.000;9.064;2024-02-26T10:39:23;98784.00;;;6.92
73734;BMP280;62039;50.000;9.064;2024-02-26T10:41:50;98783.47;;;6.96
73734;BMP280;62039;50.000;9.064;2024-02-26T10:44:17;98787.53;;;6.99
73734;BMP280;62039;50.000;9.064;2024-02-26T10:46:46;98787.97;;;7.02
73734;BMP280;62039;50.000;9.064;2024-02-26T10:49:14;98784.06;;;7.06
73734;BMP280;62039;50.000;9.064;2024-02-26T10:51:44;98783.53;;;7.11
73734;BMP280;62039;50.000;9.064;2024-02-26T10:54:14;98792.78;;;7.14
73734;BMP280;62039;50.000;9.064;2024-02-26T10:56:46;98785.44;;;7.17
73734;BMP280;62039;50.000;9.064;2024-02-26T10:59:14;98784.13;;;7.21
73734;BMP280;62039;50.000;9.064;2024-02-26T11:01:43;98791.53;;;7.24
73734;BMP280;62039;50.000;9.064;2024-02-26T11:04:10;98794.41;;;7.29
73734;BMP280;62039;50.000;9.064;2024-02-26T11:06:38;98802.31;;;7.36
73734;BMP280;62039;50.000;9.064;2024-02-26T11:09:06;98807.81;;;7.41
73734;BMP280;62039;50.000;9.064;2024-02-26T11:11:34;98805.47;;;7.46
73734;BMP280;62039;50.000;9.064;2024-02-26T11:14:05;98811.13;;;7.50
73734;BMP280;62039;50.000;9.064;2024-02-26T11:16:34;98818.44;;;7.54
73734;BMP280;62039;50.000;9.064;2024-02-26T11:19:02;98808.47;;;7.58
73734;BMP280;62039;50.000;9.064;2024-02-26T11:21:29;98807.16;;;7.62
73734;BMP280;62039;50.000;9.064;2024-02-26T11:23:57;98810.03;;;7.67
73734;BMP280;62039;50.000;9.064;2024-02-26T11:26:24;98806.25;;;7.69
73734;BMP280;62039;50.000;9.064;2024-02-26T11:28:53;98803.13;;;7.74
73734;BMP280;62039;50.000;9.064;2024-02-26T11:31:24;98796.59;;;7.78
73734;BMP280;62039;50.000;9.064;2024-02-26T11:33:51;98793.66;;;7.81
73734;BMP280;62039;50.000;9.064;2024-02-26T11:36:19;98800.09;;;7.85
73734;BMP280;62039;50.000;9.064;2024-02-26T11:38:46;98801.34;;;7.89
73734;BMP280;62039;50.000;9.064;2024-02-26T11:41:15;98797.41;;;7.93
73734;BMP280;62039;50.000;9.064;2024-02-26T11:43:51;98798.66;;;7.97
73734;BMP280;62039;50.000;9.064;2024-02-26T11:46:28;98807.72;;;8.01
73734;BMP280;62039;50.000;9.064;2024-02-26T11:48:58;98802.13;;;8.04
73734;BMP280;62039;50.000;9.064;2024-02-26T11:51:26;98800.59;;;8.10
73734;BMP280;62039;50.000;9.064;2024-02-26T11:53:53;98808.50;;;8.16
73734;BMP280;62039;50.000;9.064;2024-02-26T11:56:22;98818.22;;;8.22
73734;BMP280;62039;50.000;9.064;2024-02-26T11:58:57;98818.09;;;8.31
73734;BMP280;62039;50.000;9.064;2024-02-26T12:01:48;98814.75;;;8.37
73734;BMP280;62039;50.000;9.064;2024-02-26T12:04:19;98816.44;;;8.44
73734;BMP280;62039;50.000;9.064;2024-02-26T12:06:51;98815.53;;;8.52
73734;BMP280;62039;50.000;9.064;2024-02-26T12:09:33;98816.28;;;8.60
73734;BMP280;62039;50.000;9.064;2024-02-26T12:12:02;98818.41;;;8.72
73734;BMP280;62039;50.000;9.064;2024-02-26T12:14:32;98810.94;;;8.83
73734;BMP280;62039;50.000;9.064;2024-02-26T12:17:02;98804.84;;;8.97
73734;BMP280;62039;50.000;9.064;2024-02-26T12:19:30;98806.38;;;9.13
73734;BMP280;62039;50.000;9.064;2024-02-26T12:21:57;98809.56;;;9.30
73734;BMP280;62039;50.000;9.064;2024-02-26T12:24:24;98805.03;;;9.45
73734;BMP280;62039;50.000;9.064;2024-02-26T12:26:51;98811.97;;;9.59
73734;BMP280;62039;50.000;9.064;2024-02-26T12:29:18;98812.09;;;9.72
73734;BMP280;62039;50.000;9.064;2024-02-26T12:31:45;98807.16;;;9.84
73734;BMP280;62039;50.000;9.064;2024-02-26T12:34:16;98809.41;;;9.94
73734;BMP280;62039;50.000;9.064;2024-02-26T12:36:44;98811.69;;;10.03
73734;BMP280;62039;50.000;9.064;2024-02-26T12:39:11;98814.34;;;10.10
73734;BMP280;62039;50.000;9.064;2024-02-26T12:41:38;98809.16;;;10.16
73734;BMP280;62039;50.000;9.064;2024-02-26T12:44:05;98813.78;;;10.21
73734;BMP280;62039;50.000;9.064;2024-02-26T12:46:32;98810.78;;;10.24
73734;BMP280;62039;50.000;9.064;2024-02-26T12:48:59;98814.63;;;10.28
73734;BMP280;62039;50.000;9.064;2024-02-26T12:51:29;98817.66;;;10.32
73734;BMP280;62039;50.000;9.064;2024-02-26T12:53:56;98815.63;;;10.34
73734;BMP280;62039;50.000;9.064;2024-02-26T12:56:25;98817.06;;;10.36
73734;BMP280;62039;50.000;9.064;2024-02-26T12:58:53;98821.88;;;10.39
73734;BMP280;62039;50.000;9.064;2024-02-26T13:01:23;98827.72;;;10.41
73734;BMP280;62039;50.000;9.064;2024-02-26T13:03:51;98836.16;;;10.43
73734;BMP280;62039;50.000;9.064;2024-02-26T13:06:19;98832.56;;;10.44
73734;BMP280;62039;50.000;9.064;2024-02-26T13:08:49;98833.16;;;10.46
73734;BMP280;62039;50.000;9.064;2024-02-26T13:11:16;98833.78;;;10.48
73734;BMP280;62039;50.000;9.064;2024-02-26T13:13:47;98838.59;;;10.51
73734;BMP280;62039;50.000;9.064;2024-02-26T13:16:15;98840.19;;;10.52
73734;BMP280;62039;50.000;9.064;2024-02-26T13:18:42;98846.03;;;10.54
73734;BMP280;62039;50.000;9.064;2024-02-26T13:21:11;98842.88;;;10.59
73734;BMP280;62039;50.000;9.064;2024-02-26T13:23:39;98845.91;;;10.63
73734;BMP280;62039;50.000;9.064;2024-02-26T13:26:11;98838.69;;;10.65
73734;BMP280;62039;50.000;9.064;2024-02-26T13:28:39;98841.88;;;10.67
73734;BMP280;62039;50.000;9.064;2024-02-26T13:31:06;98845.31;;;10.67
73734;BMP280;62039;50.000;9.064;2024-02-26T13:33:33;98846.72;;;10.70
73734;BMP280;62039;50.000;9.064;2024-02-26T13:36:01;98842.13;;;10.72
73734;BMP280;62039;50.000;9.064;2024-02-26T13:38:28;98844.34;;;10.75
73734;BMP280;62039;50.000;9.064;2024-02-26T13:40:55;98850.16;;;10.77
73734;BMP280;62039;50.000;9.064;2024-02-26T13:43:25;98846.34;;;10.79
73734;BMP280;62039;50.000;9.064;2024-02-26T13:45:52;98854.78;;;10.81
73734;BMP280;62039;50.000;9.064;2024-02-26T13:48:19;98858.84;;;10.84
73734;BMP280;62039;50.000;9.064;2024-02-26T13:50:46;98855.00;;;10.86
73734;BMP280;62039;50.000;9.064;2024-02-26T13:53:13;98853.81;;;10.89
73734;BMP280;62039;50.000;9.064;2024-02-26T13:55:41;98861.84;;;10.94
73734;BMP280;62039;50.000;9.064;2024-02-26T13:58:08;98859.69;;;10.97
73734;BMP280;62039;50.000;9.064;2024-02-26T14:00:40;98861.69;;;11.02
73734;BMP280;62039;50.000;9.064;2024-02-26T14:03:07;98859.28;;;11.07
73734;BMP280;62039;50.000;9.064;2024-02-26T14:05:35;98864.31;;;11.15
73734;BMP280;62039;50.000;9.064;2024-02-26T14:08:02;98862.13;;;11.25
73734;BMP280;62039;50.000;9.064;2024-02-26T14:10:29;98860.91;;;11.34
73734;BMP280;62039;50.000;9.064;2024-02-26T14:12:56;98856.13;;;11.45
73734;BMP280;62039;50.000;9.064;2024-02-26T14:15:23;98859.34;;;11.53
73734;BMP280;62039;50.000;9.064;2024-02-26T14:17:53;98860.56;;;11.64
73734;BMP280;62039;50.000;9.064;2024-02-26T14:20:20;98861.38;;;11.71
73734;BMP280;62039;50.000;9.064;2024-02-26T14:22:48;98865.59;;;11.78